Time;durP1;ratioP1;P1;durP2;ratioP2;P2;SDS_P1;SDS_P2;PMS_P1;PMS_P2;Temp;Humidity;BMP_temperature;BMP_pressure;BME280_temperature;BME280_humidity;BME280_pressure;Samples;Min_cycle;Max_cycle;Signal;HPM_P1;HPM_P2
2021/07/17 00:00:49;;;;;;;35.70;26.52;;;;;;;22.69;82.10;101826.59;5060184;28;20032;-52
2021/07/17 00:03:14;;;;;;;29.08;23.15;;;;;;;22.51;82.89;101820.09;5057581;28;20479;-51
2021/07/17 00:05:40;;;;;;;33.58;24.83;;;;;;;22.47;83.66;101819.91;5059125;28;20103;-52
2021/07/17 00:08:05;;;;;;;34.00;26.45;;;;;;;22.47;83.03;101811.72;5063086;28;20028;-50
2021/07/17 00:10:50;;;;;;;32.90;25.83;;;;;;;22.39;83.44;101811.59;5054187;28;20035;-50
2021/07/17 00:13:17;;;;;;;31.27;24.42;;;;;;;22.50;83.09;101808.38;5058818;28;20055;-49
2021/07/17 00:15:43;;;;;;;33.38;24.33;;;;;;;22.55;82.74;101811.00;5060521;28;20487;-50
2021/07/17 00:18:08;;;;;;;32.38;25.23;;;;;;;22.55;83.00;101816.47;5059881;28;20032;-52
2021/07/17 00:20:34;;;;;;;34.50;24.85;;;;;;;22.56;82.72;101809.88;5060142;28;20125;-51
2021/07/17 00:23:00;;;;;;;37.47;27.38;;;;;;;22.57;82.78;101808.75;5058191;28;20085;-50
2021/07/17 00:25:26;;;;;;;36.60;27.05;;;;;;;22.58;82.82;101810.38;5058934;28;20079;-50
2021/07/17 00:27:52;;;;;;;37.55;27.15;;;;;;;22.55;83.19;101808.25;5055133;28;20028;-50
2021/07/17 00:30:18;;;;;;;38.83;27.63;;;;;;;22.53;83.32;101809.69;5060588;28;20520;-52
2021/07/17 00:32:46;;;;;;;35.92;27.42;;;;;;;22.37;84.19;101805.63;5060948;28;20024;-50
2021/07/17 00:35:12;;;;;;;37.47;27.48;;;;;;;22.25;84.71;101809.63;5056579;28;20024;-51
2021/07/17 00:37:38;;;;;;;39.22;27.98;;;;;;;22.18;85.21;101816.63;5057997;28;20359;-51
2021/07/17 00:40:05;;;;;;;37.22;26.90;;;;;;;22.17;85.21;101815.00;5055551;28;20028;-50
2021/07/17 00:42:31;;;;;;;38.33;28.05;;;;;;;22.07;85.87;101817.88;5056632;28;20028;-51
2021/07/17 00:44:57;;;;;;;43.88;30.45;;;;;;;22.11;85.62;101818.94;5055587;28;20551;-50
2021/07/17 00:47:23;;;;;;;43.53;30.42;;;;;;;22.13;85.71;101816.72;5058271;28;20025;-50
2021/07/17 00:49:49;;;;;;;41.38;29.02;;;;;;;22.15;85.88;101817.22;5059312;28;20502;-50
2021/07/17 00:52:14;;;;;;;44.90;30.58;;;;;;;22.00;87.24;101816.34;5056917;28;20032;-50
2021/07/17 00:54:40;;;;;;;45.45;31.58;;;;;;;22.03;86.93;101817.66;5060133;28;20222;-49
2021/07/17 00:57:08;;;;;;;42.30;28.77;;;;;;;21.91;87.63;101825.53;5062631;28;20024;-51
2021/07/17 00:59:36;;;;;;;49.72;32.95;;;;;;;21.89;88.22;101817.59;5056560;28;20053;-49
2021/07/17 01:02:03;;;;;;;45.25;31.40;;;;;;;21.86;88.49;101812.75;5057310;28;20028;-49
2021/07/17 01:04:29;;;;;;;44.83;31.58;;;;;;;21.89;87.92;101819.53;5061069;28;20465;-49
2021/07/17 01:06:57;;;;;;;45.35;31.65;;;;;;;21.83;88.56;101821.53;5058711;28;20028;-50
2021/07/17 01:09:23;;;;;;;42.40;29.40;;;;;;;21.90;87.80;101818.41;5056779;28;20633;-49
2021/07/17 01:11:51;;;;;;;47.35;31.92;;;;;;;21.91;88.04;101818.16;5039916;28;20032;-52
2021/07/17 01:14:16;;;;;;;42.67;29.20;;;;;;;21.96;87.40;101818.06;5063853;28;20278;-49
2021/07/17 01:16:42;;;;;;;38.90;28.80;;;;;;;22.02;86.86;101818.75;5057465;28;20207;-50
2021/07/17 01:19:10;;;;;;;41.47;29.35;;;;;;;22.06;86.68;101819.81;5061641;28;20061;-49
2021/07/17 01:21:36;;;;;;;39.22;27.73;;;;;;;22.13;86.26;101814.78;5058888;28;20025;-50
2021/07/17 01:24:02;;;;;;;38.10;27.27;;;;;;;22.14;86.31;101818.31;5058213;28;20029;-50
2021/07/17 01:26:28;;;;;;;41.38;28.95;;;;;;;22.14;86.49;101816.41;5061243;28;20030;-52
2021/07/17 01:28:54;;;;;;;38.83;28.00;;;;;;;22.10;87.11;101814.59;5061544;28;20024;-52
2021/07/17 01:31:19;;;;;;;42.08;29.50;;;;;;;22.05;87.55;101814.66;5055841;28;20506;-52
2021/07/17 01:33:45;;;;;;;44.85;28.17;;;;;;;22.10;87.12;101814.59;5056722;28;20063;-49
2021/07/17 01:36:11;;;;;;;40.25;26.52;;;;;;;22.16;86.62;101814.19;5059777;28;20024;-50
2021/07/17 01:38:37;;;;;;;43.40;29.98;;;;;;;22.18;86.56;101809.22;5055954;28;20112;-51
2021/07/17 01:41:03;;;;;;;36.35;26.25;;;;;;;22.17;87.00;101807.63;5057947;28;20454;-50
2021/07/17 01:43:29;;;;;;;41.30;27.45;;;;;;;22.20;86.70;101811.66;5056532;28;20063;-52
2021/07/17 01:45:59;;;;;;;38.17;27.48;;;;;;;22.24;86.75;101810.75;5057428;28;20020;-51
2021/07/17 01:48:25;;;;;;;38.10;28.00;;;;;;;22.26;86.66;101818.63;5057539;28;20035;-50
2021/07/17 01:50:51;;;;;;;39.97;26.88;;;;;;;22.27;86.89;101818.38;5058138;28;20029;-52
2021/07/17 01:53:17;;;;;;;38.70;27.52;;;;;;;22.25;87.20;101817.81;5055612;28;20032;-50
2021/07/17 01:55:42;;;;;;;33.83;26.15;;;;;;;22.33;86.82;101812.81;5059676;28;20028;-50
2021/07/17 01:58:09;;;;;;;35.92;26.08;;;;;;;22.39;86.57;101817.84;5056904;28;20074;-50
2021/07/17 02:00:35;;;;;;;34.53;25.85;;;;;;;22.44;nan;101823.25;5055349;28;20040;-51
2021/07/17 02:03:01;;;;;;;34.90;26.35;;;;;;;22.47;86.40;101822.63;5055187;28;20032;-51
2021/07/17 02:05:27;;;;;;;32.30;23.50;;;;;;;22.55;85.92;101824.66;5056234;28;20028;-50
2021/07/17 02:07:54;;;;;;;36.03;24.77;;;;;;;22.59;85.92;101822.94;5055714;28;20054;-49
2021/07/17 02:10:28;;;;;;;31.98;24.60;;;;;;;22.63;86.11;101819.63;5052248;28;20407;-51
2021/07/17 02:13:06;;;;;;;38.80;25.20;;;;;;;22.64;85.94;101823.97;5056200;28;20029;-50
2021/07/17 02:15:35;;;;;;;34.78;23.60;;;;;;;22.69;85.87;101832.84;5054666;28;20106;-52
2021/07/17 02:18:01;;;;;;;36.05;24.88;;;;;;;22.54;86.70;101839.41;5057231;28;20025;-51
2021/07/17 02:20:28;;;;;;;39.90;25.92;;;;;;;22.39;88.04;101845.16;5057006;28;20025;-50
2021/07/17 02:22:53;;;;;;;36.72;25.42;;;;;;;22.44;87.73;101836.91;5058888;28;20512;-51
2021/07/17 02:25:19;;;;;;;32.38;23.50;;;;;;;22.53;87.50;101828.81;5058357;28;20056;-51
2021/07/17 02:27:44;;;;;;;32.50;24.05;;;;;;;22.60;87.12;101829.19;5059021;28;20382;-52
2021/07/17 02:30:11;;;;;;;30.70;24.65;;;;;;;22.56;87.38;101823.53;5052483;28;20057;-50
2021/07/17 02:32:36;;;;;;;31.38;23.17;;;;;;;22.63;86.76;101825.88;5056866;28;20475;-51
2021/07/17 02:35:04;;;;;;;30.45;23.45;;;;;;;22.71;86.25;101829.81;5056984;28;20025;-51
2021/07/17 02:37:30;;;;;;;31.40;23.90;;;;;;;22.74;85.97;101829.22;5055923;28;20272;-52
2021/07/17 02:39:55;;;;;;;32.92;23.20;;;;;;;22.63;86.53;101825.06;5056496;28;20206;-50
2021/07/17 02:42:21;;;;;;;30.20;23.60;;;;;;;22.61;86.89;101823.44;5058858;28;20508;-49
2021/07/17 02:44:46;;;;;;;31.38;22.45;;;;;;;22.68;86.36;101824.97;5056102;28;20027;-51
2021/07/17 02:47:12;;;;;;;28.88;22.58;;;;;;;22.54;86.98;101820.31;5057325;28;20420;-51
2021/07/17 02:49:38;;;;;;;29.77;21.67;;;;;;;22.58;86.63;101818.56;5057933;28;20032;-50
2021/07/17 02:52:03;;;;;;;28.65;22.58;;;;;;;22.58;86.74;101821.31;5058445;28;20024;-52
2021/07/17 02:54:29;;;;;;;28.23;21.77;;;;;;;22.63;86.20;101817.69;5056173;28;20025;-49
2021/07/17 02:56:54;;;;;;;31.85;22.00;;;;;;;22.70;85.69;101822.75;5057612;28;20068;-50
2021/07/17 02:59:20;;;;;;;26.50;21.23;;;;;;;22.71;85.61;101824.34;5036871;28;20025;-51
2021/07/17 03:01:45;;;;;;;27.73;20.65;;;;;;;22.58;85.96;101824.03;5056458;28;20487;-50
2021/07/17 03:04:11;;;;;;;30.48;22.17;;;;;;;22.52;86.44;101833.47;5051897;28;20028;-51
2021/07/17 03:06:36;;;;;;;28.83;22.40;;;;;;;22.49;86.59;101831.34;5056466;28;20063;-49
2021/07/17 03:09:04;;;;;;;24.60;20.08;;;;;;;22.52;86.45;101835.38;5056179;28;20037;-50
2021/07/17 03:11:32;;;;;;;27.10;21.02;;;;;;;22.52;86.48;101833.47;5055404;28;20524;-50
2021/07/17 03:13:59;;;;;;;26.35;20.67;;;;;;;22.54;85.88;101833.97;5055841;28;20024;-51
2021/07/17 03:16:25;;;;;;;26.52;19.55;;;;;;;22.56;85.87;101829.00;5056925;28;20086;-49
2021/07/17 03:18:51;;;;;;;27.20;20.35;;;;;;;22.44;86.67;101838.78;5059771;28;20020;-49
2021/07/17 03:21:17;;;;;;;24.50;19.50;;;;;;;22.48;86.27;101837.09;5055661;28;20058;-50
2021/07/17 03:23:42;;;;;;;24.90;19.13;;;;;;;22.47;86.01;101847.22;5056298;28;20499;-51
2021/07/17 03:26:08;;;;;;;25.42;18.80;;;;;;;22.49;85.88;101844.19;5056869;28;20025;-50
2021/07/17 03:28:33;;;;;;;24.23;18.00;;;;;;;22.48;85.76;101848.03;5060519;28;20028;-49
2021/07/17 03:30:59;;;;;;;25.15;18.65;;;;;;;22.52;85.42;101846.31;5061401;28;20115;-50
2021/07/17 03:33:24;;;;;;;21.33;16.73;;;;;;;22.46;85.25;101840.13;5059158;28;20393;-50
2021/07/17 03:35:50;;;;;;;23.20;16.20;;;;;;;22.46;84.64;101836.59;5058847;28;20056;-50
2021/07/17 03:38:15;;;;;;;18.95;15.10;;;;;;;22.47;84.29;101832.75;5060762;28;20482;-51
2021/07/17 03:40:40;;;;;;;22.67;16.50;;;;;;;22.44;84.31;101833.31;5063578;28;20032;-51
2021/07/17 03:43:06;;;;;;;19.13;13.93;;;;;;;22.43;83.92;101829.78;5060121;28;20466;-50
2021/07/17 03:45:31;;;;;;;17.30;14.43;;;;;;;22.47;83.45;101827.28;5060828;28;20036;-51
2021/07/17 03:47:57;;;;;;;19.88;14.63;;;;;;;22.48;83.29;101826.19;5062011;28;20020;-50
2021/07/17 03:50:22;;;;;;;20.70;13.90;;;;;;;22.45;83.45;101838.50;5059514;28;20039;-49
2021/07/17 03:52:48;;;;;;;19.38;14.27;;;;;;;22.43;83.32;101834.44;5057949;28;20059;-49
2021/07/17 03:55:13;;;;;;;20.60;13.98;;;;;;;22.49;82.93;101831.34;5062886;28;20028;-50
2021/07/17 03:57:39;;;;;;;17.55;14.10;;;;;;;22.55;82.76;101838.31;5061504;28;20070;-50
2021/07/17 04:00:06;;;;;;;19.25;14.38;;;;;;;22.57;82.52;101830.63;5057475;28;20406;-50
2021/07/17 04:02:39;;;;;;;17.80;13.15;;;;;;;22.61;82.10;101837.09;5055880;28;20021;-50
2021/07/17 04:05:06;;;;;;;19.15;13.52;;;;;;;22.58;81.94;101832.22;5055601;28;20028;-50
2021/07/17 04:07:31;;;;;;;21.45;13.45;;;;;;;22.53;81.96;101846.00;5057346;28;20142;-50
2021/07/17 04:09:57;;;;;;;17.73;12.98;;;;;;;22.57;81.86;101835.28;5054576;28;21321;-50
2021/07/17 04:12:22;;;;;;;18.15;12.88;;;;;;;22.61;81.59;101836.28;5059570;28;20028;-50
2021/07/17 04:14:48;;;;;;;18.55;12.75;;;;;;;22.59;81.67;101838.50;5056505;28;20067;-49
2021/07/17 04:17:13;;;;;;;16.20;13.02;;;;;;;22.61;81.59;101841.75;5059080;28;20025;-49
2021/07/17 04:19:39;;;;;;;19.40;13.65;;;;;;;22.52;82.09;101846.31;5057052;28;20030;-49
2021/07/17 04:22:04;;;;;;;19.90;12.55;;;;;;;22.53;81.79;101850.66;5056435;28;20424;-51
2021/07/17 04:24:30;;;;;;;18.17;13.40;;;;;;;22.54;82.04;101858.53;5058162;28;20055;-51
2021/07/17 04:26:55;;;;;;;17.00;13.15;;;;;;;22.58;81.78;101854.09;5056120;28;20024;-50
2021/07/17 04:29:21;;;;;;;20.15;13.45;;;;;;;22.63;81.41;101846.94;5059306;28;20198;-49
2021/07/17 04:31:46;;;;;;;18.92;13.38;;;;;;;22.41;82.41;101842.94;5056612;28;20072;-50
2021/07/17 04:34:11;;;;;;;18.10;13.52;;;;;;;22.42;82.70;101849.22;5059540;28;20052;-50
2021/07/17 04:36:37;;;;;;;18.55;12.90;;;;;;;22.44;82.71;101850.56;5034398;28;20033;-49
2021/07/17 04:39:03;;;;;;;16.48;13.15;;;;;;;22.49;82.20;101855.91;5060421;28;20407;-50
2021/07/17 04:41:28;;;;;;;22.27;14.85;;;;;;;22.46;82.43;101856.53;5059571;28;20029;-49
2021/07/17 04:43:54;;;;;;;19.58;14.50;;;;;;;22.48;82.66;101856.22;5058089;28;20024;-50
2021/07/17 04:46:19;;;;;;;20.77;14.25;;;;;;;22.50;82.64;101854.00;5058364;28;20037;-50
2021/07/17 04:48:45;;;;;;;22.88;14.73;;;;;;;22.52;82.54;101859.94;5057705;28;20641;-50
2021/07/17 04:51:10;;;;;;;21.50;14.40;;;;;;;22.55;82.36;101864.81;5041962;28;20029;-49
2021/07/17 04:53:36;;;;;;;18.95;13.63;;;;;;;22.58;82.28;101864.19;5061353;28;20074;-50
2021/07/17 04:56:01;;;;;;;22.27;15.30;;;;;;;22.69;81.74;101873.03;5057770;28;20090;-49
2021/07/17 04:58:27;;;;;;;23.15;16.23;;;;;;;22.68;81.75;101863.22;5058389;28;20139;-49
2021/07/17 05:00:52;;;;;;;27.20;17.65;;;;;;;22.74;81.64;101862.81;5061292;28;20064;-48
2021/07/17 05:03:17;;;;;;;27.77;17.17;;;;;;;22.80;81.23;101863.50;5056956;28;20478;-50
2021/07/17 05:05:43;;;;;;;29.00;16.50;;;;;;;22.88;80.99;101873.78;5055838;28;20157;-50
2021/07/17 05:08:08;;;;;;;27.10;15.70;;;;;;;22.96;80.69;101867.59;5057912;28;20027;-50
2021/07/17 05:10:34;;;;;;;27.13;16.85;;;;;;;22.95;80.82;101865.97;5057799;28;20033;-50
2021/07/17 05:13:10;;;;;;;29.33;18.63;;;;;;;22.94;80.68;101869.00;5051906;28;20028;-51
2021/07/17 05:15:36;;;;;;;38.67;19.58;;;;;;;22.97;80.81;101871.94;5058204;28;20482;-50
2021/07/17 05:18:01;;;;;;;29.92;18.75;;;;;;;23.01;80.37;101863.97;5046403;28;20024;-50
2021/07/17 05:20:27;;;;;;;30.27;19.05;;;;;;;22.98;80.65;101862.66;5056465;28;20121;-52
2021/07/17 05:22:52;;;;;;;33.95;19.92;;;;;;;23.05;80.40;101865.78;5058073;28;20028;-50
2021/07/17 05:25:18;;;;;;;32.22;20.23;;;;;;;23.13;80.09;101867.78;5038105;28;20043;-50
2021/07/17 05:27:43;;;;;;;36.20;20.33;;;;;;;23.24;79.91;101870.31;5055371;28;20089;-50
2021/07/17 05:30:09;;;;;;;34.38;20.60;;;;;;;23.49;78.93;101864.25;5056914;28;20436;-51
2021/07/17 05:32:35;;;;;;;37.53;21.23;;;;;;;23.78;77.35;101858.44;5058491;28;20032;-50
2021/07/17 05:35:00;;;;;;;34.22;20.88;;;;;;;23.97;76.90;101867.28;5040071;28;20034;-50
2021/07/17 05:37:26;;;;;;;34.58;20.05;;;;;;;24.14;76.46;101858.38;5057270;28;20079;-49
2021/07/17 05:39:52;;;;;;;36.03;19.42;;;;;;;24.32;75.98;101862.03;5056168;28;20070;-52
2021/07/17 05:42:17;;;;;;;29.00;19.02;;;;;;;24.47;75.29;101861.66;5056776;28;20055;-50
2021/07/17 05:44:43;;;;;;;25.52;16.77;;;;;;;24.64;75.02;101860.91;5055076;28;20028;-51
2021/07/17 05:47:08;;;;;;;21.17;14.90;;;;;;;24.69;75.11;101863.50;5058125;28;20466;-49
2021/07/17 05:49:34;;;;;;;21.80;13.50;;;;;;;24.76;74.57;101861.09;5058877;28;20478;-50
2021/07/17 05:51:59;;;;;;;18.52;13.35;;;;;;;24.76;74.05;101860.28;5051713;28;20402;-50
2021/07/17 05:54:24;;;;;;;19.40;13.63;;;;;;;24.70;74.42;101867.84;5055971;28;20085;-50
2021/07/17 05:56:50;;;;;;;17.98;13.40;;;;;;;24.60;75.07;101860.75;5060712;28;20326;-51
2021/07/17 05:59:15;;;;;;;21.95;13.43;;;;;;;24.58;74.78;101862.97;5057623;28;20041;-50
2021/07/17 06:01:41;;;;;;;18.05;13.52;;;;;;;24.67;74.47;101863.00;5055368;28;20032;-50
2021/07/17 06:04:08;;;;;;;18.38;13.60;;;;;;;24.82;73.93;101870.00;5055574;28;20028;-51
2021/07/17 06:06:33;;;;;;;18.40;12.75;;;;;;;24.94;73.62;101854.53;5057824;28;20024;-51
2021/07/17 06:08:59;;;;;;;23.42;13.00;;;;;;;25.02;73.17;101858.50;5057756;28;20078;-51
2021/07/17 06:11:24;;;;;;;21.52;13.60;;;;;;;24.91;73.09;101866.16;5055751;28;20390;-50
2021/07/17 06:13:50;;;;;;;20.60;13.45;;;;;;;24.99;72.94;101865.41;5057159;28;20028;-51
2021/07/17 06:16:15;;;;;;;16.88;12.10;;;;;;;24.90;73.42;101874.69;5052697;28;20486;-51
2021/07/17 06:18:41;;;;;;;16.52;13.40;;;;;;;24.95;73.20;101875.34;5062420;28;20386;-52
2021/07/17 06:21:07;;;;;;;17.58;12.50;;;;;;;24.97;73.30;101872.31;5052780;28;20354;-52
2021/07/17 06:23:32;;;;;;;18.52;13.25;;;;;;;25.04;73.27;101869.94;5054044;28;20082;-51
2021/07/17 06:25:59;;;;;;;16.67;12.55;;;;;;;25.00;73.25;101872.53;5055933;28;20402;-52
2021/07/17 06:28:25;;;;;;;21.30;12.32;;;;;;;25.08;73.03;101870.91;5057683;28;20200;-52
2021/07/17 06:30:50;;;;;;;16.63;12.43;;;;;;;25.09;73.11;101885.44;5056231;28;20530;-52
2021/07/17 06:33:15;;;;;;;16.63;11.27;;;;;;;25.06;73.01;101886.06;5056273;28;20081;-52
2021/07/17 06:35:41;;;;;;;21.27;13.85;;;;;;;25.05;73.07;101884.47;5054419;28;20031;-50
2021/07/17 06:38:07;;;;;;;15.15;12.02;;;;;;;25.06;72.84;101894.31;5056945;28;20032;-50
2021/07/17 06:40:32;;;;;;;18.73;12.75;;;;;;;24.92;73.50;101892.44;5055696;28;21565;-52
2021/07/17 06:42:58;;;;;;;16.55;12.40;;;;;;;25.00;73.27;101888.16;5055085;28;20089;-50
2021/07/17 06:45:24;;;;;;;17.13;12.25;;;;;;;25.10;72.98;101892.53;5055165;28;20111;-50
2021/07/17 06:47:50;;;;;;;15.75;11.57;;;;;;;25.30;72.61;101880.94;5054830;28;20029;-50
2021/07/17 06:50:18;;;;;;;18.65;12.57;;;;;;;25.35;72.43;101883.56;5054913;28;20028;-50
2021/07/17 06:52:43;;;;;;;21.08;12.23;;;;;;;25.37;71.99;101892.28;5054899;28;20063;-50
2021/07/17 06:55:10;;;;;;;15.38;11.65;;;;;;;25.34;72.30;101894.84;5058186;28;20116;-51
2021/07/17 06:57:38;;;;;;;16.33;12.18;;;;;;;25.25;72.64;101890.16;5063797;28;20024;-51
2021/07/17 07:00:06;;;;;;;16.58;11.48;;;;;;;25.25;72.63;101887.41;5061645;28;20410;-50
2021/07/17 07:02:31;;;;;;;15.30;11.98;;;;;;;25.26;72.85;101886.28;5059181;28;20107;-51
2021/07/17 07:04:57;;;;;;;16.83;13.00;;;;;;;25.26;72.81;101889.03;5060391;28;20127;-52
2021/07/17 07:07:22;;;;;;;17.25;11.75;;;;;;;25.32;72.35;101892.44;5063261;28;20016;-51
2021/07/17 07:09:48;;;;;;;17.00;12.27;;;;;;;25.38;72.30;101893.88;5058227;28;20558;-50
2021/07/17 07:12:13;;;;;;;15.18;11.25;;;;;;;25.38;72.35;101895.84;5060342;28;20402;-50
2021/07/17 07:14:39;;;;;;;15.60;11.40;;;;;;;25.49;72.24;101895.19;5060971;28;20043;-50
2021/07/17 07:17:04;;;;;;;12.90;10.73;;;;;;;25.65;71.72;101897.47;5060481;28;20017;-50
2021/07/17 07:19:30;;;;;;;15.30;11.75;;;;;;;25.87;70.86;101894.59;5058179;28;20024;-51
2021/07/17 07:21:55;;;;;;;15.10;12.02;;;;;;;26.06;70.26;101891.50;5059237;28;20059;-50
2021/07/17 07:24:21;;;;;;;16.27;12.05;;;;;;;26.26;70.29;101893.56;5060527;28;20035;-52
2021/07/17 07:26:46;;;;;;;14.70;11.23;;;;;;;26.44;68.78;101891.63;5057571;28;20478;-52
2021/07/17 07:29:12;;;;;;;15.07;11.80;;;;;;;26.60;68.26;101900.94;5062902;28;20037;-52
2021/07/17 07:31:37;;;;;;;15.65;10.90;;;;;;;26.54;68.02;101894.00;5057772;28;20032;-51
2021/07/17 07:34:03;;;;;;;15.00;11.55;;;;;;;26.55;67.41;101903.84;5058101;28;20085;-52
2021/07/17 07:36:28;;;;;;;16.33;11.30;;;;;;;26.58;66.98;101897.72;5060720;28;20639;-53
2021/07/17 07:38:54;;;;;;;15.68;11.30;;;;;;;26.73;66.18;101896.34;5058263;28;20035;-53
2021/07/17 07:41:20;;;;;;;16.90;12.27;;;;;;;26.93;65.95;101905.81;5062518;28;20051;-52
2021/07/17 07:43:46;;;;;;;19.98;13.27;;;;;;;27.19;65.46;101895.50;5058641;28;20401;-51
2021/07/17 07:46:13;;;;;;;22.92;13.15;;;;;;;27.29;65.35;101899.81;5055277;28;20033;-51
2021/07/17 07:48:41;;;;;;;22.40;14.10;;;;;;;27.33;64.16;101903.53;5058373;28;21143;-51
2021/07/17 07:51:07;;;;;;;23.63;14.15;;;;;;;27.27;63.51;101902.88;5057103;28;20040;-50
2021/07/17 07:53:33;;;;;;;19.60;14.00;;;;;;;27.06;64.01;101904.81;5061743;28;20153;-51
2021/07/17 07:56:00;;;;;;;19.83;14.02;;;;;;;27.09;63.98;101907.69;5058528;28;20045;-52
2021/07/17 07:58:25;;;;;;;22.63;15.30;;;;;;;26.94;64.14;101910.19;5056870;28;20090;-53
2021/07/17 08:00:51;;;;;;;27.27;17.10;;;;;;;26.82;64.25;101913.63;5063397;28;20264;-51
2021/07/17 08:03:16;;;;;;;27.98;16.88;;;;;;;26.42;65.78;101915.88;5059237;28;20024;-51
2021/07/17 08:05:41;;;;;;;36.90;19.70;;;;;;;26.28;66.18;101923.47;5061076;28;20020;-52
2021/07/17 08:08:07;;;;;;;37.85;19.42;;;;;;;26.40;66.49;101918.16;5061058;28;20056;-51
2021/07/17 08:10:32;;;;;;;37.42;20.27;;;;;;;26.65;65.70;101922.75;5060201;28;20041;-51
2021/07/17 08:12:58;;;;;;;39.65;20.73;;;;;;;26.77;65.53;101925.63;5054251;28;20372;-53
2021/07/17 08:15:23;;;;;;;40.90;21.85;;;;;;;26.72;65.44;101924.97;5060029;28;20102;-52
2021/07/17 08:17:49;;;;;;;41.25;21.73;;;;;;;26.55;65.48;101923.09;5055836;28;20158;-52
2021/07/17 08:20:16;;;;;;;38.10;20.85;;;;;;;26.74;65.06;101934.50;5060929;28;20232;-52
2021/07/17 08:22:42;;;;;;;36.60;20.00;;;;;;;26.71;65.55;101926.13;5057354;28;20027;-52
2021/07/17 08:25:08;;;;;;;37.65;20.08;;;;;;;26.95;64.97;101931.06;5055747;28;20028;-50
2021/07/17 08:27:34;;;;;;;42.35;20.35;;;;;;;27.17;63.89;101927.25;5058108;28;20451;-51
2021/07/17 08:30:00;;;;;;;39.33;21.17;;;;;;;27.21;63.84;101922.69;5061632;28;20025;-52
2021/07/17 08:32:26;;;;;;;31.25;17.55;;;;;;;27.36;63.68;101928.44;5058450;28;20478;-52
2021/07/17 08:34:52;;;;;;;28.60;16.30;;;;;;;27.43;62.92;101932.59;5056122;28;20043;-52
2021/07/17 08:37:19;;;;;;;21.63;13.90;;;;;;;27.52;62.43;101931.41;5057085;28;20038;-51
2021/07/17 08:39:45;;;;;;;21.63;12.95;;;;;;;27.63;62.97;101929.06;5058287;28;20060;-51
2021/07/17 08:42:17;;;;;;;21.05;12.77;;;;;;;27.81;62.42;101921.47;5056572;28;20128;-50
2021/07/17 08:44:49;;;;;;;20.52;13.18;;;;;;;28.08;61.32;101928.38;5055869;28;20078;-50
2021/07/17 08:47:19;;;;;;;20.83;12.98;;;;;;;28.17;59.81;101924.38;5056981;28;20112;-50
2021/07/17 08:49:46;;;;;;;20.70;11.32;;;;;;;28.12;59.83;101923.81;5049053;28;20118;-52
2021/07/17 08:52:12;;;;;;;22.90;13.63;;;;;;;28.27;60.02;101923.19;5053162;28;20051;-50
2021/07/17 08:54:40;;;;;;;29.90;14.45;;;;;;;28.36;59.63;101932.16;5057840;28;20470;-50
2021/07/17 08:57:09;;;;;;;31.60;15.95;;;;;;;28.22;59.06;101926.16;5056745;28;20029;-50
2021/07/17 08:59:36;;;;;;;18.98;12.07;;;;;;;28.24;58.54;101935.69;5058325;28;20491;-50
2021/07/17 09:02:03;;;;;;;15.60;9.38;;;;;;;28.19;57.71;101938.66;5055864;28;20419;-52
2021/07/17 09:04:28;;;;;;;16.00;10.40;;;;;;;28.17;58.08;101945.63;5060027;28;20111;-51
2021/07/17 09:06:54;;;;;;;14.43;10.95;;;;;;;28.12;58.33;101938.38;5056114;28;20035;-50
2021/07/17 09:09:30;;;;;;;16.40;10.50;;;;;;;28.18;58.60;101933.47;5052884;28;20032;-51
2021/07/17 09:11:55;;;;;;;19.48;13.35;;;;;;;28.22;58.26;101939.91;5051562;28;20542;-51
2021/07/17 09:14:43;;;;;;;22.60;13.55;;;;;;;28.25;57.95;101929.06;5052733;28;20035;-50
2021/07/17 09:17:09;;;;;;;16.77;10.68;;;;;;;28.36;57.54;101936.88;5052913;28;20027;-51
2021/07/17 09:19:34;;;;;;;16.90;10.68;;;;;;;28.14;57.81;101935.28;5055264;28;20033;-51
2021/07/17 09:22:01;;;;;;;16.00;10.40;;;;;;;28.40;57.86;101937.84;5053209;28;20286;-51
2021/07/17 09:24:27;;;;;;;12.23;9.02;;;;;;;28.79;57.37;101939.16;5057000;28;20035;-51
2021/07/17 09:26:58;;;;;;;14.25;10.63;;;;;;;28.89;55.75;101945.03;5053676;28;20296;-51
2021/07/17 09:29:34;;;;;;;14.68;10.05;;;;;;;28.81;55.23;101936.88;5056347;28;20058;-51
2021/07/17 09:32:00;;;;;;;14.18;9.93;;;;;;;28.76;56.50;101946.16;5052502;28;20573;-51
2021/07/17 09:34:29;;;;;;;13.80;9.07;;;;;;;29.09;55.22;101940.59;5055301;28;20028;-52
2021/07/17 09:36:57;;;;;;;10.52;8.98;;;;;;;29.39;54.50;101945.84;5055560;28;20029;-50
2021/07/17 09:39:50;;;;;;;11.73;8.90;;;;;;;29.45;53.15;101942.53;5058317;28;20032;-51
2021/07/17 09:42:18;;;;;;;11.82;9.05;;;;;;;29.71;53.24;101939.38;5052724;28;20140;-52
2021/07/17 09:44:49;;;;;;;11.25;8.88;;;;;;;29.40;54.11;101945.50;5053220;28;20106;-52
2021/07/17 09:47:23;;;;;;;11.52;8.93;;;;;;;29.33;53.53;101938.97;5055404;28;20040;-51
2021/07/17 09:49:50;;;;;;;15.10;9.25;;;;;;;29.23;53.95;101936.66;5055615;28;20044;-50
2021/07/17 09:52:20;;;;;;;11.60;9.25;;;;;;;29.39;53.45;101943.09;5056854;28;20152;-52
2021/07/17 09:55:06;;;;;;;12.00;8.60;;;;;;;29.16;53.59;101943.56;5055615;28;20695;-51
2021/07/17 09:57:35;;;;;;;17.92;15.73;;;;;;;29.19;53.42;101937.34;5056290;28;20025;-51
2021/07/17 10:00:07;;;;;;;11.85;8.93;;;;;;;29.33;53.83;101938.97;5059624;28;20111;-51
2021/07/17 10:02:36;;;;;;;10.65;8.93;;;;;;;29.08;52.96;101938.97;5055045;28;20029;-53
2021/07/17 10:05:05;;;;;;;10.70;9.20;;;;;;;29.64;53.36;101936.41;5052445;28;20035;-51
2021/07/17 10:07:31;;;;;;;14.05;10.00;;;;;;;30.30;52.81;101930.41;5055551;28;20017;-52
2021/07/17 10:09:57;;;;;;;12.15;8.45;;;;;;;30.81;50.78;101927.78;5057319;28;20098;-52
2021/07/17 10:12:40;;;;;;;10.10;9.10;;;;;;;31.18;50.00;101922.78;5057078;28;20441;-51
2021/07/17 10:15:07;;;;;;;10.05;8.45;;;;;;;30.70;49.46;101923.13;5057909;28;20028;-52
2021/07/17 10:17:37;;;;;;;8.73;7.82;;;;;;;31.22;48.55;101920.09;5056926;28;20032;-51
2021/07/17 10:20:06;;;;;;;10.23;8.70;;;;;;;31.54;48.49;101920.78;5055347;28;20186;-52
2021/07/17 10:22:32;;;;;;;8.75;7.82;;;;;;;31.41;47.14;101911.81;5053309;28;20032;-52
2021/07/17 10:24:58;;;;;;;13.23;7.93;;;;;;;31.31;45.61;101911.59;5053157;28;20029;-52
2021/07/17 10:27:24;;;;;;;8.18;7.38;;;;;;;31.27;47.85;101905.97;5052466;28;20374;-53
2021/07/17 10:29:50;;;;;;;8.52;7.28;;;;;;;30.91;47.51;101909.84;5056121;28;20131;-50
2021/07/17 10:32:16;;;;;;;10.13;8.00;;;;;;;31.16;47.44;101902.13;5054905;28;20068;-51
2021/07/17 10:34:44;;;;;;;10.57;7.85;;;;;;;31.08;47.64;101897.59;5091325;22;20614;-52
2021/07/17 10:37:13;;;;;;;9.63;7.70;;;;;;;31.09;48.45;101902.78;5112637;27;20023;-52
2021/07/17 10:39:43;;;;;;;10.98;8.38;;;;;;;30.85;47.01;101901.00;5110415;27;20031;-51
2021/07/17 10:42:12;;;;;;;8.60;7.60;;;;;;;31.15;48.02;101890.25;5105105;27;20023;-49
2021/07/17 10:44:40;;;;;;;10.20;7.35;;;;;;;31.34;44.76;101889.50;5103755;27;20733;-53
2021/07/17 10:47:08;;;;;;;9.10;7.32;;;;;;;31.64;44.83;101891.72;5098060;28;20062;-52
2021/07/17 10:49:36;;;;;;;9.38;6.80;;;;;;;31.27;46.34;101887.41;5098324;28;20089;-53
2021/07/17 10:52:02;;;;;;;10.23;8.05;;;;;;;31.58;45.31;101889.22;5101411;28;20023;-50
2021/07/17 10:54:30;;;;;;;9.27;7.80;;;;;;;31.55;46.38;101889.16;5079913;28;20051;-51
2021/07/17 10:56:56;;;;;;;8.82;7.40;;;;;;;31.33;45.96;101881.56;5102849;28;20261;-49
2021/07/17 10:59:22;;;;;;;13.55;7.60;;;;;;;31.74;46.36;101880.06;5096078;28;20058;-52
2021/07/17 11:01:56;;;;;;;11.93;7.70;;;;;;;32.28;44.26;101870.81;5096135;28;20539;-49
2021/07/17 11:04:35;;;;;;;9.35;6.53;;;;;;;32.07;42.98;101877.56;5100734;28;20038;-52
2021/07/17 11:07:25;;;;;;;11.40;6.75;;;;;;;31.85;43.49;101875.56;5098595;28;20472;-51
2021/07/17 11:10:12;;;;;;;12.07;6.45;;;;;;;32.02;43.24;101874.31;5071484;28;20059;-51